Time;durP1;ratioP1;P1;durP2;ratioP2;P2;SDS_P1;SDS_P2;PMS_P1;PMS_P2;Temp;Humidity;BMP_temperature;BMP_pressure;BME280_temperature;BME280_humidity;BME280_pressure;Samples;Min_cycle;Max_cycle;Signal;HPM_P1;HPM_P2
2022/08/09 00:00:11;;;;;;;;;;;;;;;;;;1029952;28;2631;-54
2022/08/09 00:01:01;;;;;;;;;;;;;;;;;;1032348;28;2366;-49
2022/08/09 00:01:31;;;;;;;;;;;;;;;;;;1033027;28;4615;-49
2022/08/09 00:02:02;;;;;;;;;;;;;;;;;;1032387;28;3728;-56
2022/08/09 00:02:32;;;;;;;;;;;;;;;;;;1033509;28;3140;-54
2022/08/09 00:03:02;;;;;;;;;;;;;;;;;;1032948;28;3183;-53
2022/08/09 00:03:33;;;;;;;;;;;;;;;;;;1030694;28;3986;-55
2022/08/09 00:04:03;;;;;;;;;;;;;;;;;;1029816;28;2051;-52
2022/08/09 00:04:34;;;;;;;;;;;;;;;;;;1030324;28;2350;-51
2022/08/09 00:05:04;;;;;;;;;;;;;;;;;;1029008;28;2454;-54
2022/08/09 00:05:35;;;;;;;;;;;;;;;;;;1029016;28;3478;-52
2022/08/09 00:06:05;;;;;;;;;;;;;;;;;;1028341;28;3898;-55
2022/08/09 00:06:35;;;;;;;;;;;;;;;;;;1029992;28;2880;-54
2022/08/09 00:07:06;;;;;;;;;;;;;;;;;;1030100;28;1717;-49
2022/08/09 00:07:36;;;;;;;;;;;;;;;;;;1030610;28;1303;-49
2022/08/09 00:08:09;;;;;;;;;;;;;;;;;;1028320;28;3001;-51
2022/08/09 00:08:39;;;;;;;;;;;;;;;;;;1029018;28;3017;-53
2022/08/09 00:09:10;;;;;;;;;;;;;;;;;;1029987;28;1974;-53
2022/08/09 00:09:40;;;;;;;;;;;;;;;;;;1033120;28;1981;-53
2022/08/09 00:10:11;;;;;;;;;;;;;;;;;;1033764;28;2043;-51
2022/08/09 00:10:41;;;;;;;;;;;;;;;;;;1033952;28;2069;-51
2022/08/09 00:11:11;;;;;;;;;;;;;;;;;;1033688;28;1693;-55
2022/08/09 00:11:42;;;;;;;;;;;;;;;;;;1028358;28;3324;-54
2022/08/09 00:12:12;;;;;;;;;;;;;;;;;;1030008;28;3066;-57
2022/08/09 00:12:42;;;;;;;;;;;;;;;;;;1032907;28;3290;-53
2022/08/09 00:13:14;;;;;;;;;;;;;;;;;;1032940;28;2585;-54
2022/08/09 00:13:44;;;;;;;;;;;;;;;;;;1033442;28;3456;-48
2022/08/09 00:14:15;;;;;;;;;;;;;;;;;;1031945;28;4110;-52
2022/08/09 00:14:46;;;;;;;;;;;;;;;;;;1028567;28;3110;-52
2022/08/09 00:15:16;;;;;;;;;;;;;;;;;;1030430;28;3774;-53
2022/08/09 00:15:46;;;;;;;;;;;;;;;;;;1031494;28;5685;-55
2022/08/09 00:16:16;;;;;;;;;;;;;;;;;;1031999;28;3482;-52
2022/08/09 00:16:47;;;;;;;;;;;;;;;;;;1029668;28;3249;-50
2022/08/09 00:17:18;;;;;;;;;;;;;;;;;;1029574;28;3216;-54
2022/08/09 00:17:48;;;;;;;;;;;;;;;;;;1028304;28;3493;-52
2022/08/09 00:18:18;;;;;;;;;;;;;;;;;;1028580;28;3366;-52
2022/08/09 00:18:49;;;;;;;;;;;;;;;;;;1028765;28;3371;-52
2022/08/09 00:19:19;;;;;;;;;;;;;;;;;;1028510;28;3332;-52
2022/08/09 00:19:49;;;;;;;;;;;;;;;;;;1030046;28;1685;-53
2022/08/09 00:20:20;;;;;;;;;;;;;;;;;;1029886;28;3316;-51
2022/08/09 00:20:50;;;;;;;;;;;;;;;;;;1029457;28;3423;-51
2022/08/09 00:21:20;;;;;;;;;;;;;;;;;;1029798;28;2585;-53
2022/08/09 00:21:50;;;;;;;;;;;;;;;;;;1029735;28;2010;-51
2022/08/09 00:22:20;;;;;;;;;;;;;;;;;;1027304;28;2764;-51
2022/08/09 00:22:51;;;;;;;;;;;;;;;;;;1028306;28;3498;-55
2022/08/09 00:23:21;;;;;;;;;;;;;;;;;;1028140;28;3773;-52
2022/08/09 00:23:51;;;;;;;;;;;;;;;;;;1029782;28;2452;-51
2022/08/09 00:24:21;;;;;;;;;;;;;;;;;;1029460;28;3389;-57
2022/08/09 00:25:05;;;;;;;;;;;;;;;;;;1029535;28;1964;-54
2022/08/09 00:25:42;;;;;;;;;;;;;;;;;;1029569;28;2412;-53
2022/08/09 00:26:12;;;;;;;;;;;;;;;;;;1030680;28;1653;-54
2022/08/09 00:26:42;;;;;;;;;;;;;;;;;;1028783;28;3189;-51
2022/08/09 00:27:13;;;;;;;;;;;;;;;;;;1030076;28;3475;-53
2022/08/09 00:27:43;;;;;;;;;;;;;;;;;;1029823;28;3173;-54
2022/08/09 00:28:13;;;;;;;;;;;;;;;;;;1029499;28;2348;-51
2022/08/09 00:28:44;;;;;;;;;;;;;;;;;;1029677;28;2677;-53
2022/08/09 00:29:14;;;;;;;;;;;;;;;;;;1030051;28;3201;-56
2022/08/09 00:29:44;;;;;;;;;;;;;;;;;;1029353;28;2938;-53
2022/08/09 00:30:14;;;;;;;;;;;;;;;;;;1030025;28;2960;-51
2022/08/09 00:30:45;;;;;;;;;;;;;;;;;;1029368;28;2281;-52
2022/08/09 00:31:15;;;;;;;;;;;;;;;;;;1028642;28;3757;-49
2022/08/09 00:31:45;;;;;;;;;;;;;;;;;;1030292;28;1694;-51
2022/08/09 00:32:16;;;;;;;;;;;;;;;;;;1030523;28;1638;-51
2022/08/09 00:32:47;;;;;;;;;;;;;;;;;;1030387;28;2927;-53
2022/08/09 00:33:17;;;;;;;;;;;;;;;;;;1030123;28;2327;-54
2022/08/09 00:33:48;;;;;;;;;;;;;;;;;;1029307;28;2876;-52
2022/08/09 00:34:18;;;;;;;;;;;;;;;;;;1029641;28;2705;-50
2022/08/09 00:34:49;;;;;;;;;;;;;;;;;;1029481;28;2481;-56
2022/08/09 00:35:19;;;;;;;;;;;;;;;;;;1028182;28;3279;-49
2022/08/09 00:35:49;;;;;;;;;;;;;;;;;;1028776;28;3237;-53
2022/08/09 00:36:21;;;;;;;;;;;;;;;;;;1029394;28;3076;-53
2022/08/09 00:36:51;;;;;;;;;;;;;;;;;;1030781;28;1725;-52
2022/08/09 00:37:21;;;;;;;;;;;;;;;;;;1029345;28;3204;-53
2022/08/09 00:37:51;;;;;;;;;;;;;;;;;;1033186;28;2844;-53
2022/08/09 00:38:22;;;;;;;;;;;;;;;;;;1030944;28;3363;-51
2022/08/09 00:38:52;;;;;;;;;;;;;;;;;;1032959;28;3323;-56
2022/08/09 00:39:22;;;;;;;;;;;;;;;;;;1032092;28;2760;-51
2022/08/09 00:39:53;;;;;;;;;;;;;;;;;;1033140;28;3186;-53
2022/08/09 00:40:23;;;;;;;;;;;;;;;;;;1033251;28;2400;-53
2022/08/09 00:40:53;;;;;;;;;;;;;;;;;;1030457;28;1633;-52
2022/08/09 00:41:24;;;;;;;;;;;;;;;;;;1028765;28;3036;-52
2022/08/09 00:41:54;;;;;;;;;;;;;;;;;;1030010;28;3614;-53
2022/08/09 00:42:27;;;;;;;;;;;;;;;;;;1028757;28;3133;-52
2022/08/09 00:42:57;;;;;;;;;;;;;;;;;;1029747;28;3006;-50
2022/08/09 00:43:29;;;;;;;;;;;;;;;;;;1029995;28;1675;-56
2022/08/09 00:43:59;;;;;;;;;;;;;;;;;;1030025;28;1691;-54
2022/08/09 00:44:29;;;;;;;;;;;;;;;;;;1030528;28;3141;-54
2022/08/09 00:45:00;;;;;;;;;;;;;;;;;;1028327;28;3364;-49
2022/08/09 00:45:31;;;;;;;;;;;;;;;;;;1029642;28;3225;-54
2022/08/09 00:46:01;;;;;;;;;;;;;;;;;;1028713;28;2594;-54
2022/08/09 00:46:31;;;;;;;;;;;;;;;;;;1029800;28;4044;-53
2022/08/09 00:47:02;;;;;;;;;;;;;;;;;;1028770;28;2424;-52
2022/08/09 00:47:32;;;;;;;;;;;;;;;;;;1030334;28;1708;-55
2022/08/09 00:48:03;;;;;;;;;;;;;;;;;;1029472;28;1720;-53
2022/08/09 00:48:33;;;;;;;;;;;;;;;;;;1029565;28;2967;-53
2022/08/09 00:49:04;;;;;;;;;;;;;;;;;;1028319;28;2996;-53
2022/08/09 00:49:34;;;;;;;;;;;;;;;;;;1030252;28;3402;-51
2022/08/09 00:50:11;;;;;;;;;;;;;;;;;;1029692;28;2594;-54
2022/08/09 00:50:42;;;;;;;;;;;;;;;;;;1025644;28;3173;-49
2022/08/09 00:51:14;;;;;;;;;;;;;;;;;;1026369;28;3158;-55
2022/08/09 00:51:44;;;;;;;;;;;;;;;;;;1030006;28;3361;-55
2022/08/09 00:52:14;;;;;;;;;;;;;;;;;;1028704;28;2245;-51
2022/08/09 00:52:44;;;;;;;;;;;;;;;;;;1030060;28;2725;-53
2022/08/09 00:53:15;;;;;;;;;;;;;;;;;;1029907;28;2271;-53
2022/08/09 00:53:46;;;;;;;;;;;;;;;;;;1029702;28;3443;-55
2022/08/09 00:54:16;;;;;;;;;;;;;;;;;;1029403;28;2554;-51
2022/08/09 00:54:48;;;;;;;;;;;;;;;;;;1029535;28;2093;-51
2022/08/09 00:55:18;;;;;;;;;;;;;;;;;;1028778;28;3192;-52
2022/08/09 00:55:48;;;;;;;;;;;;;;;;;;1030651;28;1601;-54
2022/08/09 00:56:19;;;;;;;;;;;;;;;;;;1029284;28;2596;-51
2022/08/09 00:56:49;;;;;;;;;;;;;;;;;;1030437;28;1771;-56
2022/08/09 00:57:20;;;;;;;;;;;;;;;;;;1026923;28;3625;-53
2022/08/09 00:57:50;;;;;;;;;;;;;;;;;;1030610;28;3292;-54
2022/08/09 00:58:20;;;;;;;;;;;;;;;;;;1028974;28;3128;-51
2022/08/09 00:58:51;;;;;;;;;;;;;;;;;;1029568;28;3263;-54
2022/08/09 00:59:21;;;;;;;;;;;;;;;;;;1029894;28;3596;-53
2022/08/09 00:59:51;;;;;;;;;;;;;;;;;;1029552;28;3045;-52
2022/08/09 01:00:21;;;;;;;;;;;;;;;;;;1029214;28;3298;-52
2022/08/09 01:00:53;;;;;;;;;;;;;;;;;;1029517;28;3497;-53
2022/08/09 01:01:25;;;;;;;;;;;;;;;;;;1029427;28;2040;-50
2022/08/09 01:01:58;;;;;;;;;;;;;;;;;;1029533;28;3036;-54
2022/08/09 01:02:28;;;;;;;;;;;;;;;;;;1029279;28;3516;-53
2022/08/09 01:03:10;;;;;;;;;;;;;;;;;;1030080;28;1614;-50
2022/08/09 01:03:45;;;;;;;;;;;;;;;;;;1033444;28;3048;-52
2022/08/09 01:04:21;;;;;;;;;;;;;;;;;;1032909;28;2451;-53
2022/08/09 01:05:02;;;;;;;;;;;;;;;;;;1034385;28;2766;-54
2022/08/09 01:05:36;;;;;;;;;;;;;;;;;;1030748;28;2592;-51
2022/08/09 01:06:10;;;;;;;;;;;;;;;;;;1030417;28;1785;-51
2022/08/09 01:06:49;;;;;;;;;;;;;;;;;;1029032;28;2413;-53
2022/08/09 01:07:37;;;;;;;;;;;;;;;;;;1029577;28;2479;-51
2022/08/09 01:08:12;;;;;;;;;;;;;;;;;;1030471;28;3184;-51
2022/08/09 01:08:49;;;;;;;;;;;;;;;;;;1030418;28;1890;-50
2022/08/09 01:09:55;;;;;;;;;;;;;;;;;;1028616;28;3382;-54
2022/08/09 01:10:25;;;;;;;;;;;;;;;;;;1016826;29;1930;-52
2022/08/09 01:11:14;;;;;;;;;;;;;;;;;;1017037;29;3089;-56
2022/08/09 01:12:03;;;;;;;;;;;;;;;;;;1032238;28;3047;-55
2022/08/09 01:12:41;;;;;;;;;;;;;;;;;;1033353;28;2280;-54
2022/08/09 01:13:12;;;;;;;;;;;;;;;;;;1031377;28;2567;-54
2022/08/09 01:13:47;;;;;;;;;;;;;;;;;;1030012;28;2065;-52
2022/08/09 01:14:29;;;;;;;;;;;;;;;;;;1029966;28;2156;-52
2022/08/09 01:15:11;;;;;;;;;;;;;;;;;;1030238;28;3613;-53
2022/08/09 01:15:44;;;;;;;;;;;;;;;;;;1029197;28;3209;-53
2022/08/09 01:16:15;;;;;;;;;;;;;;;;;;1029452;28;3050;-53
2022/08/09 01:16:46;;;;;;;;;;;;;;;;;;1029744;28;3355;-52
2022/08/09 01:17:20;;;;;;;;;;;;;;;;;;1033431;28;1634;-49
2022/08/09 01:18:06;;;;;;;;;;;;;;;;;;1033606;28;1757;-52
2022/08/09 01:18:38;;;;;;;;;;;;;;;;;;1033581;28;2464;-53
2022/08/09 01:19:19;;;;;;;;;;;;;;;;;;1030946;28;2341;-50
2022/08/09 01:20:21;;;;;;;;;;;;;;;;;;1029788;28;2557;-52
2022/08/09 01:21:10;;;;;;;;;;;;;;;;;;1026138;28;2239;-54
2022/08/09 01:21:46;;;;;;;;;;;;;;;;;;1024271;28;3337;-53
2022/08/09 01:22:22;;;;;;;;;;;;;;;;;;1028591;28;3219;-53
2022/08/09 01:23:02;;;;;;;;;;;;;;;;;;1030230;28;1713;-54
2022/08/09 01:23:45;;;;;;;;;;;;;;;;;;1029777;28;3321;-54
2022/08/09 01:24:27;;;;;;;;;;;;;;;;;;1029546;28;3186;-53
2022/08/09 01:25:11;;;;;;;;;;;;;;;;;;1026239;28;2783;-54
2022/08/09 01:25:48;;;;;;;;;;;;;;;;;;1021623;28;3392;-55
2022/08/09 01:26:43;;;;;;;;;;;;;;;;;;1020849;28;3036;-52
2022/08/09 01:27:15;;;;;;;;;;;;;;;;;;1024107;28;2263;-53
2022/08/09 01:27:48;;;;;;;;;;;;;;;;;;1024389;28;3238;-50
2022/08/09 01:28:20;;;;;;;;;;;;;;;;;;1024667;28;2541;-54
2022/08/09 01:28:52;;;;;;;;;;;;;;;;;;1026121;28;3479;-52
2022/08/09 01:29:31;;;;;;;;;;;;;;;;;;1025108;28;1996;-49
2022/08/09 01:30:03;;;;;;;;;;;;;;;;;;1025104;28;3122;-52
2022/08/09 01:30:35;;;;;;;;;;;;;;;;;;1025016;28;3146;-54
2022/08/09 01:31:09;;;;;;;;;;;;;;;;;;1025373;28;3218;-51
2022/08/09 01:31:42;;;;;;;;;;;;;;;;;;1024876;28;2691;-50
2022/08/09 01:32:13;;;;;;;;;;;;;;;;;;1024896;28;3201;-55
2022/08/09 01:32:45;;;;;;;;;;;;;;;;;;1025132;28;3798;-51
2022/08/09 01:33:17;;;;;;;;;;;;;;;;;;1024593;28;2054;-54
2022/08/09 01:33:47;;;;;;;;;;;;;;;;;;1025474;28;3244;-55
2022/08/09 01:34:20;;;;;;;;;;;;;;;;;;1025117;28;3769;-54
2022/08/09 01:34:52;;;;;;;;;;;;;;;;;;1025346;28;3344;-56
2022/08/09 01:35:29;;;;;;;;;;;;;;;;;;1025064;28;4199;-55
2022/08/09 01:36:05;;;;;;;;;;;;;;;;;;1025906;28;3364;-52
2022/08/09 01:36:37;;;;;;;;;;;;;;;;;;1025759;28;3394;-52
2022/08/09 01:37:09;;;;;;;;;;;;;;;;;;1023200;28;4134;-52
2022/08/09 01:37:39;;;;;;;;;;;;;;;;;;1026213;28;3089;-55
2022/08/09 01:38:13;;;;;;;;;;;;;;;;;;1025456;28;1738;-51
2022/08/09 01:38:45;;;;;;;;;;;;;;;;;;1024090;28;3387;-54
2022/08/09 01:39:16;;;;;;;;;;;;;;;;;;1025501;28;1958;-54
2022/08/09 01:39:47;;;;;;;;;;;;;;;;;;1024113;28;3239;-55
2022/08/09 01:40:18;;;;;;;;;;;;;;;;;;1025150;28;2733;-53
2022/08/09 01:40:51;;;;;;;;;;;;;;;;;;1026192;28;1701;-54
2022/08/09 01:41:27;;;;;;;;;;;;;;;;;;1023973;28;3485;-52
2022/08/09 01:41:58;;;;;;;;;;;;;;;;;;1026197;28;4357;-52
2022/08/09 01:42:29;;;;;;;;;;;;;;;;;;1024312;28;2203;-54
2022/08/09 01:43:00;;;;;;;;;;;;;;;;;;1025765;28;1492;-50
2022/08/09 01:43:31;;;;;;;;;;;;;;;;;;1024725;28;3185;-53
2022/08/09 01:44:03;;;;;;;;;;;;;;;;;;1026229;28;3280;-55
2022/08/09 01:44:35;;;;;;;;;;;;;;;;;;1025442;28;2032;-51
2022/08/09 01:45:06;;;;;;;;;;;;;;;;;;1025581;28;2726;-52
2022/08/09 01:45:37;;;;;;;;;;;;;;;;;;1024947;28;2970;-54
2022/08/09 01:46:08;;;;;;;;;;;;;;;;;;1025945;28;2241;-52
2022/08/09 01:46:41;;;;;;;;;;;;;;;;;;1025754;28;2118;-54
2022/08/09 01:47:12;;;;;;;;;;;;;;;;;;1026089;28;1647;-48
2022/08/09 01:47:43;;;;;;;;;;;;;;;;;;1025954;28;1791;-51
2022/08/09 01:48:15;;;;;;;;;;;;;;;;;;1026062;28;1400;-53
2022/08/09 01:48:45;;;;;;;;;;;;;;;;;;1025576;28;1999;-56
2022/08/09 01:49:17;;;;;;;;;;;;;;;;;;1020597;28;4118;-51
2022/08/09 01:49:48;;;;;;;;;;;;;;;;;;1021400;28;2180;-53
2022/08/09 01:50:26;;;;;;;;;;;;;;;;;;1020710;28;3090;-52
2022/08/09 01:50:57;;;;;;;;;;;;;;;;;;1023046;28;2938;-53
2022/08/09 01:51:28;;;;;;;;;;;;;;;;;;1024636;28;3505;-53
2022/08/09 01:52:02;;;;;;;;;;;;;;;;;;1026304;28;1585;-51
2022/08/09 01:52:33;;;;;;;;;;;;;;;;;;1025206;28;2378;-53
2022/08/09 01:53:03;;;;;;;;;;;;;;;;;;1024431;28;3336;-55
2022/08/09 01:53:34;;;;;;;;;;;;;;;;;;1025273;28;3071;-57
2022/08/09 01:54:05;;;;;;;;;;;;;;;;;;1026136;28;1942;-54
2022/08/09 01:54:40;;;;;;;;;;;;;;;;;;1026155;28;1587;-54
2022/08/09 01:55:11;;;;;;;;;;;;;;;;;;1024957;28;3059;-52
2022/08/09 01:55:43;;;;;;;;;;;;;;;;;;1025291;28;2657;-54
2022/08/09 01:56:13;;;;;;;;;;;;;;;;;;1026416;28;3383;-52
2022/08/09 01:56:45;;;;;;;;;;;;;;;;;;1024048;28;3590;-51
2022/08/09 01:57:20;;;;;;;;;;;;;;;;;;1026206;28;3434;-52
2022/08/09 01:57:51;;;;;;;;;;;;;;;;;;1025600;28;2115;-54
2022/08/09 01:58:22;;;;;;;;;;;;;;;;;;1024638;28;3144;-53
2022/08/09 01:58:54;;;;;;;;;;;;;;;;;;1025293;28;2019;-53
2022/08/09 01:59:24;;;;;;;;;;;;;;;;;;1023828;28;3340;-51
2022/08/09 01:59:58;;;;;;;;;;;;;;;;;;1021196;28;3750;-51
2022/08/09 02:00:29;;;;;;;;;;;;;;;;;;1020607;28;3177;-50
2022/08/09 02:01:01;;;;;;;;;;;;;;;;;;1021090;29;1682;-52
2022/08/09 02:01:32;;;;;;;;;;;;;;;;;;1022640;28;3307;-54
2022/08/09 02:02:02;;;;;;;;;;;;;;;;;;1025686;28;2143;-52
2022/08/09 02:02:34;;;;;;;;;;;;;;;;;;1024801;28;2692;-53
2022/08/09 02:03:06;;;;;;;;;;;;;;;;;;1024949;28;3060;-50
2022/08/09 02:03:36;;;;;;;;;;;;;;;;;;1026503;28;2843;-54
2022/08/09 02:04:08;;;;;;;;;;;;;;;;;;1025309;28;2028;-53
2022/08/09 02:04:39;;;;;;;;;;;;;;;;;;1025046;28;2463;-52
2022/08/09 02:05:10;;;;;;;;;;;;;;;;;;1024808;28;2876;-53
2022/08/09 02:05:43;;;;;;;;;;;;;;;;;;1025009;28;3189;-50
2022/08/09 02:06:15;;;;;;;;;;;;;;;;;;1025520;28;3408;-51
2022/08/09 02:07:37;;;;;;;;;;;;;;;;;;1025245;28;2902;-49
2022/08/09 02:08:09;;;;;;;;;;;;;;;;;;1023909;28;3785;-52
2022/08/09 02:08:42;;;;;;;;;;;;;;;;;;1025110;28;3497;-51
2022/08/09 02:09:14;;;;;;;;;;;;;;;;;;1026160;28;2893;-57
2022/08/09 02:09:59;;;;;;;;;;;;;;;;;;1025538;28;1834;-51
2022/08/09 02:10:30;;;;;;;;;;;;;;;;;;1025100;28;2437;-55
2022/08/09 02:11:01;;;;;;;;;;;;;;;;;;1024125;28;3247;-55
2022/08/09 02:11:31;;;;;;;;;;;;;;;;;;1026438;28;3483;-56
2022/08/09 02:12:04;;;;;;;;;;;;;;;;;;1019344;28;3299;-55
2022/08/09 02:12:35;;;;;;;;;;;;;;;;;;1020497;28;2516;-53
2022/08/09 02:13:06;;;;;;;;;;;;;;;;;;1021641;28;1904;-50
2022/08/09 02:13:37;;;;;;;;;;;;;;;;;;1021905;28;3199;-51
2022/08/09 02:14:07;;;;;;;;;;;;;;;;;;1025424;28;3442;-53
2022/08/09 02:14:39;;;;;;;;;;;;;;;;;;1025408;28;1728;-50
2022/08/09 02:15:09;;;;;;;;;;;;;;;;;;1025126;28;1958;-50
2022/08/09 02:15:44;;;;;;;;;;;;;;;;;;1025843;28;3358;-52
2022/08/09 02:16:15;;;;;;;;;;;;;;;;;;1025017;28;1883;-50
2022/08/09 02:16:45;;;;;;;;;;;;;;;;;;1026727;28;1560;-51
2022/08/09 02:17:17;;;;;;;;;;;;;;;;;;1024605;28;2126;-50
2022/08/09 02:17:50;;;;;;;;;;;;;;;;;;1025977;28;2467;-52
2022/08/09 02:18:25;;;;;;;;;;;;;;;;;;1024272;28;3463;-52
2022/08/09 02:18:57;;;;;;;;;;;;;;;;;;1024942;28;3088;-53
2022/08/09 02:19:27;;;;;;;;;;;;;;;;;;1024335;28;4006;-51
2022/08/09 02:19:57;;;;;;;;;;;;;;;;;;1026215;28;1617;-51
2022/08/09 02:20:28;;;;;;;;;;;;;;;;;;1025203;28;2407;-53
2022/08/09 02:21:04;;;;;;;;;;;;;;;;;;1026725;28;1597;-55
2022/08/09 02:21:40;;;;;;;;;;;;;;;;;;1024258;28;3516;-51
2022/08/09 02:22:19;;;;;;;;;;;;;;;;;;1025716;28;2893;-56
2022/08/09 02:22:51;;;;;;;;;;;;;;;;;;1026429;28;1711;-51
2022/08/09 02:23:39;;;;;;;;;;;;;;;;;;1024713;28;3099;-53
2022/08/09 02:24:10;;;;;;;;;;;;;;;;;;1025800;28;2078;-51
2022/08/09 02:24:43;;;;;;;;;;;;;;;;;;1025376;28;3230;-51
2022/08/09 02:25:31;;;;;;;;;;;;;;;;;;1027145;28;2984;-54
2022/08/09 02:26:15;;;;;;;;;;;;;;;;;;1025307;28;2290;-51
2022/08/09 02:26:47;;;;;;;;;;;;;;;;;;1025019;28;2261;-52
2022/08/09 02:27:18;;;;;;;;;;;;;;;;;;1025269;28;2849;-54
2022/08/09 02:27:55;;;;;;;;;;;;;;;;;;1023510;28;3121;-51
2022/08/09 02:28:29;;;;;;;;;;;;;;;;;;1024164;28;2202;-52
2022/08/09 02:29:01;;;;;;;;;;;;;;;;;;1025124;28;3651;-50
2022/08/09 02:29:34;;;;;;;;;;;;;;;;;;1023398;28;3226;-52
2022/08/09 02:30:06;;;;;;;;;;;;;;;;;;1025068;28;2685;-53
2022/08/09 02:30:39;;;;;;;;;;;;;;;;;;1024299;28;2454;-50
2022/08/09 02:31:14;;;;;;;;;;;;;;;;;;1026244;28;1389;-52
2022/08/09 02:31:46;;;;;;;;;;;;;;;;;;1025293;28;3262;-55
2022/08/09 02:32:18;;;;;;;;;;;;;;;;;;1025136;28;3414;-52
2022/08/09 02:32:48;;;;;;;;;;;;;;;;;;1025245;28;1610;-54
2022/08/09 02:33:21;;;;;;;;;;;;;;;;;;1025244;28;2422;-54
2022/08/09 02:33:53;;;;;;;;;;;;;;;;;;1025226;28;3770;-51
2022/08/09 02:34:29;;;;;;;;;;;;;;;;;;1024726;28;2603;-53
2022/08/09 02:35:02;;;;;;;;;;;;;;;;;;1019050;28;3334;-50
2022/08/09 02:35:34;;;;;;;;;;;;;;;;;;1019524;28;4764;-52
2022/08/09 02:36:06;;;;;;;;;;;;;;;;;;1022464;28;2724;-51
2022/08/09 02:36:39;;;;;;;;;;;;;;;;;;1020600;28;2411;-54
2022/08/09 02:37:13;;;;;;;;;;;;;;;;;;1025062;28;3460;-55
2022/08/09 02:37:45;;;;;;;;;;;;;;;;;;1024697;28;2033;-52
2022/08/09 02:38:19;;;;;;;;;;;;;;;;;;1025763;28;2052;-53
2022/08/09 02:38:51;;;;;;;;;;;;;;;;;;1025698;28;2055;-51
2022/08/09 02:39:23;;;;;;;;;;;;;;;;;;1024644;28;3143;-48
2022/08/09 02:40:03;;;;;;;;;;;;;;;;;;1024792;28;2385;-54
2022/08/09 02:40:35;;;;;;;;;;;;;;;;;;1020165;28;2919;-52
2022/08/09 02:41:07;;;;;;;;;;;;;;;;;;1021030;29;1869;-54
2022/08/09 02:41:43;;;;;;;;;;;;;;;;;;1021764;28;2705;-53
2022/08/09 02:42:18;;;;;;;;;;;;;;;;;;1022782;28;2905;-54
2022/08/09 02:42:49;;;;;;;;;;;;;;;;;;1024041;28;3360;-53
2022/08/09 02:43:22;;;;;;;;;;;;;;;;;;1024633;28;3485;-54
2022/08/09 02:43:53;;;;;;;;;;;;;;;;;;1025641;28;3524;-52
2022/08/09 02:44:25;;;;;;;;;;;;;;;;;;1026056;28;3513;-51
2022/08/09 02:44:59;;;;;;;;;;;;;;;;;;1025126;28;2290;-53
2022/08/09 02:45:31;;;;;;;;;;;;;;;;;;1026567;28;3373;-51
2022/08/09 02:46:03;;;;;;;;;;;;;;;;;;1026134;28;1678;-52
2022/08/09 02:46:34;;;;;;;;;;;;;;;;;;1026906;28;1974;-51
2022/08/09 02:47:10;;;;;;;;;;;;;;;;;;1026366;28;1899;-54
2022/08/09 02:47:41;;;;;;;;;;;;;;;;;;1026638;28;1759;-55
2022/08/09 02:48:13;;;;;;;;;;;;;;;;;;1026613;28;2057;-54
2022/08/09 02:48:51;;;;;;;;;;;;;;;;;;1024538;28;3575;-50
2022/08/09 02:49:21;;;;;;;;;;;;;;;;;;1026153;28;2540;-51
2022/08/09 02:49:56;;;;;;;;;;;;;;;;;;1026738;28;1684;-54
2022/08/09 02:50:29;;;;;;;;;;;;;;;;;;1025978;28;2270;-57
2022/08/09 02:51:00;;;;;;;;;;;;;;;;;;1024514;28;3209;-55
2022/08/09 02:51:33;;;;;;;;;;;;;;;;;;1024215;28;3129;-53
2022/08/09 02:52:04;;;;;;;;;;;;;;;;;;1025686;28;2975;-53
2022/08/09 02:52:43;;;;;;;;;;;;;;;;;;1024627;28;3314;-51
2022/08/09 02:53:17;;;;;;;;;;;;;;;;;;1024145;28;2916;-51
2022/08/09 02:53:51;;;;;;;;;;;;;;;;;;1024839;28;3253;-54
2022/08/09 02:54:22;;;;;;;;;;;;;;;;;;1025378;28;3321;-52
2022/08/09 02:54:53;;;;;;;;;;;;;;;;;;1026385;28;1857;-52
2022/08/09 02:55:25;;;;;;;;;;;;;;;;;;1025494;28;2313;-55
2022/08/09 02:55:57;;;;;;;;;;;;;;;;;;1025037;28;3075;-49
2022/08/09 02:56:30;;;;;;;;;;;;;;;;;;1025905;28;1661;-56
2022/08/09 02:57:02;;;;;;;;;;;;;;;;;;1025897;28;2883;-55
2022/08/09 02:57:33;;;;;;;;;;;;;;;;;;1025564;28;2635;-49
2022/08/09 02:58:04;;;;;;;;;;;;;;;;;;1020525;28;3020;-54
2022/08/09 02:58:34;;;;;;;;;;;;;;;;;;1021214;28;3266;-56
2022/08/09 02:59:05;;;;;;;;;;;;;;;;;;1021051;28;2818;-56
2022/08/09 02:59:37;;;;;;;;;;;;;;;;;;1021650;28;3180;-52
2022/08/09 03:00:10;;;;;;;;;;;;;;;;;;1024381;28;3634;-55
2022/08/09 03:00:41;;;;;;;;;;;;;;;;;;1024600;28;4196;-53
2022/08/09 03:01:12;;;;;;;;;;;;;;;;;;1026026;28;2859;-55
2022/08/09 03:01:43;;;;;;;;;;;;;;;;;;1025740;28;1677;-53
2022/08/09 03:02:15;;;;;;;;;;;;;;;;;;1027188;28;1573;-52
2022/08/09 03:02:47;;;;;;;;;;;;;;;;;;1025898;28;2928;-53
2022/08/09 03:03:18;;;;;;;;;;;;;;;;;;1026375;28;3513;-53
2022/08/09 03:03:48;;;;;;;;;;;;;;;;;;1021033;28;3100;-53
2022/08/09 03:04:19;;;;;;;;;;;;;;;;;;1021083;28;3185;-53
2022/08/09 03:04:50;;;;;;;;;;;;;;;;;;1020853;28;3041;-53
2022/08/09 03:05:21;;;;;;;;;;;;;;;;;;1023022;28;1522;-51
2022/08/09 03:05:54;;;;;;;;;;;;;;;;;;1025658;28;2065;-54
2022/08/09 03:06:25;;;;;;;;;;;;;;;;;;1025811;28;2458;-54
2022/08/09 03:06:57;;;;;;;;;;;;;;;;;;1024631;28;3271;-49
2022/08/09 03:07:35;;;;;;;;;;;;;;;;;;1025320;28;3418;-54
2022/08/09 03:08:06;;;;;;;;;;;;;;;;;;1025538;28;3327;-53
2022/08/09 03:08:38;;;;;;;;;;;;;;;;;;1025665;28;2746;-52
2022/08/09 03:09:08;;;;;;;;;;;;;;;;;;1026674;28;1615;-53
2022/08/09 03:09:40;;;;;;;;;;;;;;;;;;1021946;28;2720;-55
2022/08/09 03:10:11;;;;;;;;;;;;;;;;;;1020998;28;2037;-51
2022/08/09 03:10:43;;;;;;;;;;;;;;;;;;1021837;28;3886;-55
2022/08/09 03:11:14;;;;;;;;;;;;;;;;;;1020988;28;2515;-52
2022/08/09 03:11:46;;;;;;;;;;;;;;;;;;1025960;28;3619;-55
2022/08/09 03:12:17;;;;;;;;;;;;;;;;;;1024130;28;3327;-52
2022/08/09 03:12:48;;;;;;;;;;;;;;;;;;1026601;28;1673;-52
2022/08/09 03:13:19;;;;;;;;;;;;;;;;;;1026944;28;2476;-55
2022/08/09 03:13:51;;;;;;;;;;;;;;;;;;1026204;28;1604;-57
2022/08/09 03:14:21;;;;;;;;;;;;;;;;;;1025557;28;3032;-53
2022/08/09 03:14:52;;;;;;;;;;;;;;;;;;1024794;28;3223;-52
2022/08/09 03:15:30;;;;;;;;;;;;;;;;;;1019978;28;5312;-50
2022/08/09 03:16:08;;;;;;;;;;;;;;;;;;1018056;29;2637;-52
2022/08/09 03:16:38;;;;;;;;;;;;;;;;;;1017702;29;3207;-52
2022/08/09 03:17:09;;;;;;;;;;;;;;;;;;1020609;28;1484;-53
2022/08/09 03:17:39;;;;;;;;;;;;;;;;;;1023813;28;1278;-50
2022/08/09 03:18:10;;;;;;;;;;;;;;;;;;1026285;28;1641;-54
2022/08/09 03:18:41;;;;;;;;;;;;;;;;;;1026736;28;1405;-51
2022/08/09 03:19:12;;;;;;;;;;;;;;;;;;1026671;28;2020;-54
2022/08/09 03:19:42;;;;;;;;;;;;;;;;;;1026172;28;1275;-55
2022/08/09 03:20:13;;;;;;;;;;;;;;;;;;1018552;29;1527;-55
2022/08/09 03:20:43;;;;;;;;;;;;;;;;;;1016741;29;2378;-50
2022/08/09 03:21:14;;;;;;;;;;;;;;;;;;1016163;29;3555;-53
2022/08/09 03:21:49;;;;;;;;;;;;;;;;;;1017020;28;2809;-51
2022/08/09 03:22:20;;;;;;;;;;;;;;;;;;1020149;28;3432;-52
2022/08/09 03:22:50;;;;;;;;;;;;;;;;;;1021367;28;3356;-52
2022/08/09 03:23:20;;;;;;;;;;;;;;;;;;1022268;28;2086;-57
2022/08/09 03:23:51;;;;;;;;;;;;;;;;;;1021910;28;2280;-56
2022/08/09 03:24:21;;;;;;;;;;;;;;;;;;1025968;28;3220;-55
2022/08/09 03:24:51;;;;;;;;;;;;;;;;;;1025286;28;3339;-53
2022/08/09 03:25:22;;;;;;;;;;;;;;;;;;1025749;28;3276;-53
2022/08/09 03:26:13;;;;;;;;;;;;;;;;;;1025860;28;2116;-54
2022/08/09 03:26:43;;;;;;;;;;;;;;;;;;1023937;28;3296;-50
2022/08/09 03:27:14;;;;;;;;;;;;;;;;;;1026064;28;4536;-53
2022/08/09 03:27:46;;;;;;;;;;;;;;;;;;1026088;28;2150;-53
2022/08/09 03:28:17;;;;;;;;;;;;;;;;;;1025046;28;2565;-54
2022/08/09 03:28:48;;;;;;;;;;;;;;;;;;1025981;28;2378;-55
2022/08/09 03:29:18;;;;;;;;;;;;;;;;;;1021540;28;2749;-54
2022/08/09 03:29:49;;;;;;;;;;;;;;;;;;1021367;28;2984;-54
2022/08/09 03:30:27;;;;;;;;;;;;;;;;;;1019654;28;2902;-55
2022/08/09 03:30:58;;;;;;;;;;;;;;;;;;1021007;28;3549;-51
2022/08/09 03:31:28;;;;;;;;;;;;;;;;;;1024863;28;3484;-53
2022/08/09 03:31:59;;;;;;;;;;;;;;;;;;1026253;28;2656;-51
2022/08/09 03:32:29;;;;;;;;;;;;;;;;;;1024278;28;3708;-52
2022/08/09 03:33:10;;;;;;;;;;;;;;;;;;1022216;28;1437;-54
2022/08/09 03:33:40;;;;;;;;;;;;;;;;;;1022234;28;2174;-53
2022/08/09 03:34:10;;;;;;;;;;;;;;;;;;1022023;28;2778;-53
2022/08/09 03:34:41;;;;;;;;;;;;;;;;;;1023311;28;1681;-51
2022/08/09 03:35:12;;;;;;;;;;;;;;;;;;1025159;28;2888;-53
2022/08/09 03:35:43;;;;;;;;;;;;;;;;;;1025373;28;3296;-55
2022/08/09 03:36:13;;;;;;;;;;;;;;;;;;1026846;28;1687;-53
2022/08/09 03:36:43;;;;;;;;;;;;;;;;;;1024800;28;2066;-54
2022/08/09 03:37:14;;;;;;;;;;;;;;;;;;1025606;28;2000;-52
2022/08/09 03:37:44;;;;;;;;;;;;;;;;;;1024702;28;3333;-51
2022/08/09 03:38:14;;;;;;;;;;;;;;;;;;1023129;28;3386;-52
2022/08/09 03:38:45;;;;;;;;;;;;;;;;;;1023896;28;3539;-50
2022/08/09 03:39:15;;;;;;;;;;;;;;;;;;1026652;28;2727;-53
2022/08/09 03:39:47;;;;;;;;;;;;;;;;;;1025181;28;2333;-52
2022/08/09 03:40:18;;;;;;;;;;;;;;;;;;1025801;28;2302;-54
2022/08/09 03:40:48;;;;;;;;;;;;;;;;;;1025910;28;3350;-53
2022/08/09 03:41:18;;;;;;;;;;;;;;;;;;1026362;28;3521;-53
2022/08/09 03:41:48;;;;;;;;;;;;;;;;;;1024200;28;3473;-54
2022/08/09 03:42:19;;;;;;;;;;;;;;;;;;1024026;28;3177;-53
2022/08/09 03:42:49;;;;;;;;;;;;;;;;;;1025252;28;3019;-51
2022/08/09 03:43:20;;;;;;;;;;;;;;;;;;1025984;28;3238;-52
2022/08/09 03:43:50;;;;;;;;;;;;;;;;;;1025320;28;3090;-51
2022/08/09 03:44:21;;;;;;;;;;;;;;;;;;1026548;28;3224;-54
2022/08/09 03:44:51;;;;;;;;;;;;;;;;;;1024657;28;3226;-52
2022/08/09 03:45:22;;;;;;;;;;;;;;;;;;1025953;28;3248;-51
2022/08/09 03:45:52;;;;;;;;;;;;;;;;;;1025485;28;3478;-52
2022/08/09 03:46:22;;;;;;;;;;;;;;;;;;1025987;28;1807;-51
2022/08/09 03:46:52;;;;;;;;;;;;;;;;;;1026060;28;1988;-51